sensor_id;sensor_type;location;lat;lon;timestamp;P1;durP1;ratioP1;P2;durP2;ratioP2
39956;SDS011;48483;44.640;7.494;2022-11-12T00:01:09;19.13;;;14.82;;
39956;SDS011;48483;44.640;7.494;2022-11-12T00:03:55;18.00;;;14.77;;
39956;SDS011;48483;44.640;7.494;2022-11-12T00:06:40;18.75;;;14.30;;
39956;SDS011;48483;44.640;7.494;2022-11-12T00:09:26;17.58;;;13.90;;
39956;SDS011;48483;44.640;7.494;2022-11-12T00:12:11;15.38;;;13.43;;
39956;SDS011;48483;44.640;7.494;2022-11-12T00:14:58;20.95;;;13.80;;
39956;SDS011;48483;44.640;7.494;2022-11-12T00:21:05;16.90;;;12.90;;
39956;SDS011;48483;44.640;7.494;2022-11-12T00:23:50;13.90;;;12.32;;
39956;SDS011;48483;44.640;7.494;2022-11-12T00:26:35;17.13;;;11.63;;
39956;SDS011;48483;44.640;7.494;2022-11-12T00:29:20;16.40;;;12.05;;
39956;SDS011;48483;44.640;7.494;2022-11-12T00:32:07;14.93;;;12.30;;
39956;SDS011;48483;44.640;7.494;2022-11-12T00:34:52;12.32;;;10.88;;
39956;SDS011;48483;44.640;7.494;2022-11-12T00:37:38;14.20;;;11.80;;
39956;SDS011;48483;44.640;7.494;2022-11-12T00:40:23;13.90;;;10.70;;
39956;SDS011;48483;44.640;7.494;2022-11-12T00:43:08;15.30;;;11.52;;
39956;SDS011;48483;44.640;7.494;2022-11-12T00:45:53;14.60;;;11.48;;
39956;SDS011;48483;44.640;7.494;2022-11-12T00:48:40;14.95;;;10.60;;
39956;SDS011;48483;44.640;7.494;2022-11-12T00:51:25;17.77;;;10.95;;
39956;SDS011;48483;44.640;7.494;2022-11-12T00:54:10;13.82;;;11.20;;
39956;SDS011;48483;44.640;7.494;2022-11-12T00:56:55;16.15;;;10.35;;
39956;SDS011;48483;44.640;7.494;2022-11-12T00:59:40;13.32;;;10.52;;
39956;SDS011;48483;44.640;7.494;2022-11-12T01:02:25;12.77;;;9.55;;
39956;SDS011;48483;44.640;7.494;2022-11-12T01:05:11;13.75;;;9.32;;
39956;SDS011;48483;44.640;7.494;2022-11-12T01:07:57;10.75;;;9.20;;
39956;SDS011;48483;44.640;7.494;2022-11-12T01:10:42;13.10;;;9.20;;
39956;SDS011;48483;44.640;7.494;2022-11-12T01:13:27;9.40;;;8.13;;
39956;SDS011;48483;44.640;7.494;2022-11-12T01:16:12;13.55;;;9.60;;
39956;SDS011;48483;44.640;7.494;2022-11-12T01:19:00;11.95;;;8.20;;
39956;SDS011;48483;44.640;7.494;2022-11-12T01:21:48;10.15;;;8.43;;
39956;SDS011;48483;44.640;7.494;2022-11-12T01:24:33;11.65;;;8.70;;
39956;SDS011;48483;44.640;7.494;2022-11-12T01:27:18;10.32;;;8.57;;
39956;SDS011;48483;44.640;7.494;2022-11-12T01:30:03;9.77;;;7.70;;
39956;SDS011;48483;44.640;7.494;2022-11-12T01:32:49;13.13;;;7.93;;
39956;SDS011;48483;44.640;7.494;2022-11-12T01:35:34;10.23;;;7.70;;
39956;SDS011;48483;44.640;7.494;2022-11-12T01:38:20;11.48;;;8.73;;
39956;SDS011;48483;44.640;7.494;2022-11-12T01:41:07;10.90;;;8.30;;
39956;SDS011;48483;44.640;7.494;2022-11-12T01:44:06;10.43;;;8.10;;
39956;SDS011;48483;44.640;7.494;2022-11-12T01:47:00;10.20;;;7.45;;
39956;SDS011;48483;44.640;7.494;2022-11-12T01:49:50;11.30;;;8.80;;
39956;SDS011;48483;44.640;7.494;2022-11-12T01:52:40;11.65;;;9.10;;
39956;SDS011;48483;44.640;7.494;2022-11-12T01:55:31;13.73;;;10.52;;
39956;SDS011;48483;44.640;7.494;2022-11-12T01:58:20;13.00;;;9.93;;
39956;SDS011;48483;44.640;7.494;2022-11-12T02:01:08;14.13;;;10.50;;
39956;SDS011;48483;44.640;7.494;2022-11-12T02:03:53;11.82;;;9.55;;
39956;SDS011;48483;44.640;7.494;2022-11-12T02:06:39;11.77;;;9.20;;
39956;SDS011;48483;44.640;7.494;2022-11-12T02:09:25;11.80;;;8.70;;
39956;SDS011;48483;44.640;7.494;2022-11-12T02:12:12;11.50;;;8.90;;
39956;SDS011;48483;44.640;7.494;2022-11-12T02:15:17;10.07;;;7.80;;
39956;SDS011;48483;44.640;7.494;2022-11-12T02:18:02;10.73;;;7.85;;
39956;SDS011;48483;44.640;7.494;2022-11-12T02:20:51;10.88;;;7.88;;
39956;SDS011;48483;44.640;7.494;2022-11-12T02:23:39;10.03;;;7.57;;
39956;SDS011;48483;44.640;7.494;2022-11-12T02:26:25;10.88;;;8.40;;
39956;SDS011;48483;44.640;7.494;2022-11-12T02:29:12;9.38;;;7.32;;
39956;SDS011;48483;44.640;7.494;2022-11-12T02:31:57;10.70;;;8.20;;
39956;SDS011;48483;44.640;7.494;2022-11-12T02:34:42;9.40;;;7.32;;
39956;SDS011;48483;44.640;7.494;2022-11-12T02:37:29;10.57;;;7.07;;
39956;SDS011;48483;44.640;7.494;2022-11-12T02:40:15;9.77;;;7.68;;
39956;SDS011;48483;44.640;7.494;2022-11-12T02:43:01;8.57;;;6.95;;
39956;SDS011;48483;44.640;7.494;2022-11-12T02:45:46;8.35;;;6.65;;
39956;SDS011;48483;44.640;7.494;2022-11-12T02:48:31;9.63;;;6.88;;
39956;SDS011;48483;44.640;7.494;2022-11-12T02:51:17;9.90;;;7.75;;
39956;SDS011;48483;44.640;7.494;2022-11-12T02:54:02;9.50;;;6.45;;
39956;SDS011;48483;44.640;7.494;2022-11-12T02:56:48;7.70;;;5.78;;
39956;SDS011;48483;44.640;7.494;2022-11-12T02:59:34;8.70;;;5.90;;
39956;SDS011;48483;44.640;7.494;2022-11-12T03:02:19;7.90;;;6.30;;
39956;SDS011;48483;44.640;7.494;2022-11-12T03:05:04;7.72;;;5.55;;
39956;SDS011;48483;44.640;7.494;2022-11-12T03:07:49;8.07;;;5.65;;
39956;SDS011;48483;44.640;7.494;2022-11-12T03:10:38;7.90;;;5.72;;
39956;SDS011;48483;44.640;7.494;2022-11-12T03:13:25;6.78;;;5.30;;
39956;SDS011;48483;44.640;7.494;2022-11-12T03:16:10;8.82;;;5.68;;
39956;SDS011;48483;44.640;7.494;2022-11-12T03:18:56;7.20;;;5.40;;
39956;SDS011;48483;44.640;7.494;2022-11-12T03:21:41;7.00;;;5.22;;
39956;SDS011;48483;44.640;7.494;2022-11-12T03:24:26;8.00;;;5.03;;
39956;SDS011;48483;44.640;7.494;2022-11-12T03:27:11;8.25;;;5.22;;
39956;SDS011;48483;44.640;7.494;2022-11-12T03:29:58;6.75;;;4.85;;
39956;SDS011;48483;44.640;7.494;2022-11-12T03:32:43;6.30;;;5.03;;
39956;SDS011;48483;44.640;7.494;2022-11-12T03:35:28;7.00;;;5.35;;
39956;SDS011;48483;44.640;7.494;2022-11-12T03:38:13;7.70;;;5.60;;
39956;SDS011;48483;44.640;7.494;2022-11-12T03:40:59;7.35;;;5.40;;
39956;SDS011;48483;44.640;7.494;2022-11-12T03:43:44;8.30;;;5.40;;
39956;SDS011;48483;44.640;7.494;2022-11-12T03:46:30;7.47;;;5.28;;
39956;SDS011;48483;44.640;7.494;2022-11-12T03:49:15;8.10;;;5.40;;
39956;SDS011;48483;44.640;7.494;2022-11-12T03:52:00;7.28;;;4.95;;
39956;SDS011;48483;44.640;7.494;2022-11-12T03:54:45;7.05;;;5.25;;
39956;SDS011;48483;44.640;7.494;2022-11-12T03:57:30;7.60;;;5.20;;
39956;SDS011;48483;44.640;7.494;2022-11-12T04:00:16;8.10;;;5.35;;
39956;SDS011;48483;44.640;7.494;2022-11-12T04:03:03;8.02;;;5.00;;
39956;SDS011;48483;44.640;7.494;2022-11-12T04:05:48;6.18;;;4.78;;
39956;SDS011;48483;44.640;7.494;2022-11-12T04:08:52;6.95;;;5.70;;
39956;SDS011;48483;44.640;7.494;2022-11-12T04:11:37;6.90;;;4.90;;
39956;SDS011;48483;44.640;7.494;2022-11-12T04:14:22;6.68;;;5.57;;
39956;SDS011;48483;44.640;7.494;2022-11-12T04:17:07;7.35;;;5.63;;
39956;SDS011;48483;44.640;7.494;2022-11-12T04:20:13;7.85;;;6.25;;
39956;SDS011;48483;44.640;7.494;2022-11-12T04:23:16;8.70;;;6.40;;
39956;SDS011;48483;44.640;7.494;2022-11-12T04:26:01;7.95;;;6.45;;
39956;SDS011;48483;44.640;7.494;2022-11-12T04:29:05;7.68;;;6.18;;
39956;SDS011;48483;44.640;7.494;2022-11-12T04:32:09;8.50;;;6.28;;
39956;SDS011;48483;44.640;7.494;2022-11-12T04:34:54;7.00;;;5.90;;
39956;SDS011;48483;44.640;7.494;2022-11-12T04:37:41;8.57;;;6.35;;
39956;SDS011;48483;44.640;7.494;2022-11-12T04:40:29;7.55;;;5.63;;
39956;SDS011;48483;44.640;7.494;2022-11-12T04:43:33;8.85;;;6.53;;
39956;SDS011;48483;44.640;7.494;2022-11-12T04:46:38;8.98;;;6.35;;
39956;SDS011;48483;44.640;7.494;2022-11-12T04:49:23;7.00;;;5.90;;
39956;SDS011;48483;44.640;7.494;2022-11-12T04:52:08;7.63;;;5.82;;
39956;SDS011;48483;44.640;7.494;2022-11-12T04:54:55;8.98;;;6.72;;
39956;SDS011;48483;44.640;7.494;2022-11-12T04:57:41;7.60;;;6.00;;
39956;SDS011;48483;44.640;7.494;2022-11-12T05:00:26;9.57;;;6.82;;
39956;SDS011;48483;44.640;7.494;2022-11-12T05:03:11;6.93;;;5.63;;
39956;SDS011;48483;44.640;7.494;2022-11-12T05:05:59;7.60;;;6.18;;
39956;SDS011;48483;44.640;7.494;2022-11-12T05:08:45;9.23;;;6.32;;
39956;SDS011;48483;44.640;7.494;2022-11-12T05:11:31;18.75;;;6.90;;
39956;SDS011;48483;44.640;7.494;2022-11-12T05:14:17;8.45;;;6.80;;
39956;SDS011;48483;44.640;7.494;2022-11-12T05:17:02;10.95;;;6.68;;
39956;SDS011;48483;44.640;7.494;2022-11-12T05:19:47;9.20;;;7.07;;
39956;SDS011;48483;44.640;7.494;2022-11-12T05:22:32;10.13;;;7.18;;
39956;SDS011;48483;44.640;7.494;2022-11-12T05:25:17;8.15;;;6.00;;
39956;SDS011;48483;44.640;7.494;2022-11-12T05:28:04;8.48;;;6.70;;
39956;SDS011;48483;44.640;7.494;2022-11-12T05:30:49;8.55;;;6.47;;
39956;SDS011;48483;44.640;7.494;2022-11-12T05:33:34;8.88;;;7.32;;
39956;SDS011;48483;44.640;7.494;2022-11-12T05:36:19;10.95;;;7.40;;
39956;SDS011;48483;44.640;7.494;2022-11-12T05:39:04;11.00;;;7.97;;
39956;SDS011;48483;44.640;7.494;2022-11-12T05:41:49;10.48;;;7.32;;
39956;SDS011;48483;44.640;7.494;2022-11-12T05:44:36;9.55;;;7.80;;
39956;SDS011;48483;44.640;7.494;2022-11-12T05:47:21;10.13;;;7.45;;
39956;SDS011;48483;44.640;7.494;2022-11-12T05:50:07;12.45;;;7.97;;
39956;SDS011;48483;44.640;7.494;2022-11-12T05:52:52;11.63;;;8.65;;
39956;SDS011;48483;44.640;7.494;2022-11-12T05:55:37;10.13;;;8.25;;
39956;SDS011;48483;44.640;7.494;2022-11-12T05:58:22;11.23;;;7.32;;
39956;SDS011;48483;44.640;7.494;2022-11-12T06:01:09;10.25;;;7.75;;
39956;SDS011;48483;44.640;7.494;2022-11-12T06:03:54;10.00;;;8.27;;
39956;SDS011;48483;44.640;7.494;2022-11-12T06:06:40;9.55;;;7.35;;
39956;SDS011;48483;44.640;7.494;2022-11-12T06:09:25;8.98;;;7.32;;
39956;SDS011;48483;44.640;7.494;2022-11-12T06:12:10;10.95;;;7.38;;
39956;SDS011;48483;44.640;7.494;2022-11-12T06:14:55;7.88;;;5.88;;
39956;SDS011;48483;44.640;7.494;2022-11-12T06:17:42;6.60;;;5.22;;
39956;SDS011;48483;44.640;7.494;2022-11-12T06:20:27;7.10;;;5.63;;
39956;SDS011;48483;44.640;7.494;2022-11-12T06:23:12;9.95;;;5.43;;
39956;SDS011;48483;44.640;7.494;2022-11-12T06:25:57;7.97;;;4.72;;
39956;SDS011;48483;44.640;7.494;2022-11-12T06:28:42;6.25;;;5.00;;
39956;SDS011;48483;44.640;7.494;2022-11-12T06:31:27;7.47;;;5.70;;
39956;SDS011;48483;44.640;7.494;2022-11-12T06:34:14;9.40;;;6.25;;
39956;SDS011;48483;44.640;7.494;2022-11-12T06:36:59;9.30;;;6.82;;
39956;SDS011;48483;44.640;7.494;2022-11-12T06:39:44;8.45;;;6.38;;
39956;SDS011;48483;44.640;7.494;2022-11-12T06:42:29;9.27;;;6.85;;
39956;SDS011;48483;44.640;7.494;2022-11-12T06:45:14;10.07;;;7.38;;
39956;SDS011;48483;44.640;7.494;2022-11-12T06:48:00;10.32;;;7.03;;
39956;SDS011;48483;44.640;7.494;2022-11-12T06:50:46;12.00;;;7.93;;
39956;SDS011;48483;44.640;7.494;2022-11-12T06:53:31;12.38;;;8.95;;
39956;SDS011;48483;44.640;7.494;2022-11-12T06:56:16;17.63;;;11.90;;
39956;SDS011;48483;44.640;7.494;2022-11-12T06:59:02;17.10;;;13.07;;
39956;SDS011;48483;44.640;7.494;2022-11-12T07:01:47;19.23;;;14.18;;
39956;SDS011;48483;44.640;7.494;2022-11-12T07:04:32;13.73;;;11.50;;
39956;SDS011;48483;44.640;7.494;2022-11-12T07:07:18;14.30;;;10.90;;
39956;SDS011;48483;44.640;7.494;2022-11-12T07:10:04;19.50;;;12.35;;
39956;SDS011;48483;44.640;7.494;2022-11-12T07:12:51;20.67;;;16.25;;
39956;SDS011;48483;44.640;7.494;2022-11-12T07:15:37;18.02;;;14.23;;
39956;SDS011;48483;44.640;7.494;2022-11-12T07:18:22;19.67;;;14.38;;
39956;SDS011;48483;44.640;7.494;2022-11-12T07:21:08;13.82;;;10.27;;
39956;SDS011;48483;44.640;7.494;2022-11-12T07:23:56;10.13;;;7.28;;
39956;SDS011;48483;44.640;7.494;2022-11-12T07:26:41;9.50;;;7.07;;
39956;SDS011;48483;44.640;7.494;2022-11-12T07:29:26;8.82;;;6.70;;
39956;SDS011;48483;44.640;7.494;2022-11-12T07:32:12;8.35;;;6.65;;
39956;SDS011;48483;44.640;7.494;2022-11-12T07:34:57;8.48;;;6.93;;
39956;SDS011;48483;44.640;7.494;2022-11-12T07:37:42;8.85;;;6.60;;
39956;SDS011;48483;44.640;7.494;2022-11-12T07:40:28;8.70;;;5.85;;
39956;SDS011;48483;44.640;7.494;2022-11-12T07:43:13;7.60;;;5.85;;
39956;SDS011;48483;44.640;7.494;2022-11-12T07:45:58;7.32;;;6.13;;
39956;SDS011;48483;44.640;7.494;2022-11-12T07:48:44;6.75;;;5.43;;
39956;SDS011;48483;44.640;7.494;2022-11-12T07:51:30;7.55;;;5.22;;
39956;SDS011;48483;44.640;7.494;2022-11-12T07:54:15;8.23;;;5.00;;
39956;SDS011;48483;44.640;7.494;2022-11-12T07:57:02;8.27;;;5.82;;
39956;SDS011;48483;44.640;7.494;2022-11-12T07:59:47;8.10;;;5.63;;
39956;SDS011;48483;44.640;7.494;2022-11-12T08:02:32;7.63;;;5.60;;
39956;SDS011;48483;44.640;7.494;2022-11-12T08:05:17;9.48;;;6.15;;
39956;SDS011;48483;44.640;7.494;2022-11-12T08:08:02;8.00;;;5.60;;
39956;SDS011;48483;44.640;7.494;2022-11-12T08:10:47;8.85;;;5.38;;
39956;SDS011;48483;44.640;7.494;2022-11-12T08:13:38;7.68;;;5.35;;
39956;SDS011;48483;44.640;7.494;2022-11-12T08:16:23;9.20;;;6.30;;
39956;SDS011;48483;44.640;7.494;2022-11-12T08:19:08;7.45;;;6.53;;
39956;SDS011;48483;44.640;7.494;2022-11-12T08:21:54;9.07;;;7.32;;
39956;SDS011;48483;44.640;7.494;2022-11-12T08:24:38;9.43;;;6.78;;
39956;SDS011;48483;44.640;7.494;2022-11-12T08:27:23;7.63;;;6.10;;
39956;SDS011;48483;44.640;7.494;2022-11-12T08:30:11;9.63;;;6.68;;
39956;SDS011;48483;44.640;7.494;2022-11-12T08:32:57;8.70;;;6.90;;
39956;SDS011;48483;44.640;7.494;2022-11-12T08:35:43;9.00;;;7.55;;
39956;SDS011;48483;44.640;7.494;2022-11-12T08:38:28;11.10;;;8.93;;
39956;SDS011;48483;44.640;7.494;2022-11-12T08:41:13;18.98;;;9.00;;
39956;SDS011;48483;44.640;7.494;2022-11-12T08:43:59;20.70;;;10.65;;
39956;SDS011;48483;44.640;7.494;2022-11-12T08:46:46;18.20;;;10.88;;
39956;SDS011;48483;44.640;7.494;2022-11-12T08:49:31;12.95;;;11.27;;
39956;SDS011;48483;44.640;7.494;2022-11-12T08:52:16;13.90;;;9.55;;
39956;SDS011;48483;44.640;7.494;2022-11-12T08:55:03;14.20;;;9.32;;
39956;SDS011;48483;44.640;7.494;2022-11-12T08:57:49;12.80;;;9.57;;
39956;SDS011;48483;44.640;7.494;2022-11-12T09:00:35;12.30;;;8.43;;
39956;SDS011;48483;44.640;7.494;2022-11-12T09:03:23;13.35;;;9.07;;
39956;SDS011;48483;44.640;7.494;2022-11-12T09:06:09;12.48;;;8.65;;
39956;SDS011;48483;44.640;7.494;2022-11-12T09:08:54;11.45;;;8.77;;
39956;SDS011;48483;44.640;7.494;2022-11-12T09:11:39;13.98;;;8.82;;
39956;SDS011;48483;44.640;7.494;2022-11-12T09:14:24;15.68;;;8.63;;
39956;SDS011;48483;44.640;7.494;2022-11-12T09:17:10;17.95;;;9.43;;
39956;SDS011;48483;44.640;7.494;2022-11-12T09:19:56;13.13;;;8.98;;
39956;SDS011;48483;44.640;7.494;2022-11-12T09:22:42;17.45;;;10.60;;
39956;SDS011;48483;44.640;7.494;2022-11-12T09:25:27;14.02;;;10.02;;
39956;SDS011;48483;44.640;7.494;2022-11-12T09:28:13;17.27;;;11.00;;
39956;SDS011;48483;44.640;7.494;2022-11-12T09:31:00;16.58;;;12.80;;
39956;SDS011;48483;44.640;7.494;2022-11-12T09:33:46;15.68;;;12.65;;
39956;SDS011;48483;44.640;7.494;2022-11-12T09:36:32;13.30;;;10.43;;
39956;SDS011;48483;44.640;7.494;2022-11-12T09:39:18;18.13;;;12.80;;
39956;SDS011;48483;44.640;7.494;2022-11-12T09:42:05;13.82;;;11.15;;
39956;SDS011;48483;44.640;7.494;2022-11-12T09:44:53;16.42;;;11.27;;
39956;SDS011;48483;44.640;7.494;2022-11-12T09:47:43;11.93;;;10.40;;
39956;SDS011;48483;44.640;7.494;2022-11-12T09:50:35;15.52;;;10.00;;
39956;SDS011;48483;44.640;7.494;2022-11-12T09:53:29;29.80;;;11.77;;
39956;SDS011;48483;44.640;7.494;2022-11-12T09:56:20;12.55;;;9.98;;
39956;SDS011;48483;44.640;7.494;2022-11-12T09:59:08;12.40;;;9.10;;
39956;SDS011;48483;44.640;7.494;2022-11-12T10:01:56;14.77;;;9.73;;
39956;SDS011;48483;44.640;7.494;2022-11-12T10:04:48;24.50;;;10.90;;
39956;SDS011;48483;44.640;7.494;2022-11-12T10:07:52;17.17;;;11.27;;
39956;SDS011;48483;44.640;7.494;2022-11-12T10:10:47;14.43;;;10.82;;
39956;SDS011;48483;44.640;7.494;2022-11-12T10:13:41;16.13;;;11.55;;
39956;SDS011;48483;44.640;7.494;2022-11-12T10:16:38;15.05;;;12.60;;
39956;SDS011;48483;44.640;7.494;2022-11-12T10:19:36;16.60;;;13.60;;
39956;SDS011;48483;44.640;7.494;2022-11-12T10:22:34;20.55;;;15.93;;
39956;SDS011;48483;44.640;7.494;2022-11-12T10:25:43;18.80;;;15.25;;
39956;SDS011;48483;44.640;7.494;2022-11-12T10:28:32;23.52;;;17.10;;
39956;SDS011;48483;44.640;7.494;2022-11-12T10:31:21;22.33;;;17.55;;
39956;SDS011;48483;44.640;7.494;2022-11-12T10:34:10;18.83;;;16.58;;
39956;SDS011;48483;44.640;7.494;2022-11-12T10:37:03;21.42;;;16.25;;
39956;SDS011;48483;44.640;7.494;2022-11-12T10:39:51;26.05;;;18.67;;
39956;SDS011;48483;44.640;7.494;2022-11-12T10:42:36;29.30;;;18.48;;
39956;SDS011;48483;44.640;7.494;2022-11-12T10:45:41;20.65;;;16.90;;
39956;SDS011;48483;44.640;7.494;2022-11-12T10:48:28;21.58;;;17.02;;
39956;SDS011;48483;44.640;7.494;2022-11-12T10:51:22;23.27;;;16.60;;
39956;SDS011;48483;44.640;7.494;2022-11-12T10:54:24;21.60;;;16.65;;
39956;SDS011;48483;44.640;7.494;2022-11-12T10:57:19;17.63;;;15.75;;
39956;SDS011;48483;44.640;7.494;2022-11-12T11:00:07;20.50;;;17.33;;
39956;SDS011;48483;44.640;7.494;2022-11-12T11:03:06;17.85;;;14.48;;
39956;SDS011;48483;44.640;7.494;2022-11-12T11:06:01;19.95;;;15.52;;
39956;SDS011;48483;44.640;7.494;2022-11-12T11:08:48;15.95;;;14.10;;
39956;SDS011;48483;44.640;7.494;2022-11-12T11:11:34;16.27;;;14.57;;
39956;SDS011;48483;44.640;7.494;2022-11-12T11:14:23;18.83;;;14.40;;
39956;SDS011;48483;44.640;7.494;2022-11-12T11:17:16;12.27;;;10.82;;
39956;SDS011;48483;44.640;7.494;2022-11-12T11:20:16;14.70;;;10.82;;
39956;SDS011;48483;44.640;7.494;2022-11-12T11:23:09;12.52;;;10.73;;
39956;SDS011;48483;44.640;7.494;2022-11-12T11:26:03;15.43;;;11.15;;
39956;SDS011;48483;44.640;7.494;2022-11-12T11:28:59;13.02;;;11.52;;
39956;SDS011;48483;44.640;7.494;2022-11-12T11:32:04;14.73;;;12.00;;
39956;SDS011;48483;44.640;7.494;2022-11-12T11:35:01;13.25;;;11.23;;
39956;SDS011;48483;44.640;7.494;2022-11-12T11:38:02;11.82;;;10.57;;
39956;SDS011;48483;44.640;7.494;2022-11-12T11:41:00;15.30;;;11.70;;
39956;SDS011;48483;44.640;7.494;2022-11-12T11:43:57;13.88;;;12.25;;
39956;SDS011;48483;44.640;7.494;2022-11-12T11:46:53;15.40;;;11.95;;
39956;SDS011;48483;44.640;7.494;2022-11-12T11:49:58;13.88;;;12.43;;
39956;SDS011;48483;44.640;7.494;2022-11-12T11:52:59;18.38;;;12.52;;
39956;SDS011;48483;44.640;7.494;2022-11-12T11:55:53;14.02;;;12.57;;
39956;SDS011;48483;44.640;7.494;2022-11-12T11:58:47;12.60;;;11.30;;
39956;SDS011;48483;44.640;7.494;2022-11-12T12:01:48;14.38;;;10.68;;
39956;SDS011;48483;44.640;7.494;2022-11-12T12:04:47;13.70;;;10.13;;
39956;SDS011;48483;44.640;7.494;2022-11-12T12:07:36;10.93;;;9.82;;
39956;SDS011;48483;44.640;7.494;2022-11-12T12:10:29;13.00;;;11.30;;
39956;SDS011;48483;44.640;7.494;2022-11-12T12:13:28;12.63;;;11.05;;
39956;SDS011;48483;44.640;7.494;2022-11-12T12:16:29;14.43;;;11.85;;
39956;SDS011;48483;44.640;7.494;2022-11-12T12:19:35;13.73;;;12.18;;
39956;SDS011;48483;44.640;7.494;2022-11-12T12:22:30;13.40;;;12.00;;
39956;SDS011;48483;44.640;7.494;2022-11-12T12:25:22;14.10;;;12.60;;
39956;SDS011;48483;44.640;7.494;2022-11-12T12:28:13;13.70;;;12.10;;
39956;SDS011;48483;44.640;7.494;2022-11-12T12:31:05;13.75;;;12.35;;
39956;SDS011;48483;44.640;7.494;2022-11-12T12:33:55;15.10;;;13.25;;
39956;SDS011;48483;44.640;7.494;2022-11-12T12:36:45;14.43;;;12.95;;
39956;SDS011;48483;44.640;7.494;2022-11-12T12:39:38;14.57;;;11.82;;
39956;SDS011;48483;44.640;7.494;2022-11-12T12:42:31;14.05;;;12.55;;
39956;SDS011;48483;44.640;7.494;2022-11-12T12:45:25;16.17;;;13.00;;
39956;SDS011;48483;44.640;7.494;2022-11-12T12:48:18;14.43;;;12.90;;
39956;SDS011;48483;44.640;7.494;2022-11-12T12:51:06;14.85;;;13.30;;
39956;SDS011;48483;44.640;7.494;2022-11-12T12:53:52;15.30;;;11.68;;
39956;SDS011;48483;44.640;7.494;2022-11-12T12:56:44;14.10;;;11.90;;
39956;SDS011;48483;44.640;7.494;2022-11-12T12:59:30;13.02;;;11.60;;
39956;SDS011;48483;44.640;7.494;2022-11-12T13:02:19;17.02;;;12.10;;
39956;SDS011;48483;44.640;7.494;2022-11-12T13:08:06;14.43;;;11.93;;
39956;SDS011;48483;44.640;7.494;2022-11-12T13:10:54;14.05;;;11.75;;
39956;SDS011;48483;44.640;7.494;2022-11-12T13:13:41;14.95;;;13.15;;
39956;SDS011;48483;44.640;7.494;2022-11-12T13:19:44;17.90;;;16.10;;
39956;SDS011;48483;44.640;7.494;2022-11-12T13:25:31;21.42;;;18.73;;
39956;SDS011;48483;44.640;7.494;2022-11-12T13:28:16;25.60;;;18.92;;
39956;SDS011;48483;44.640;7.494;2022-11-12T13:31:02;22.88;;;18.48;;
39956;SDS011;48483;44.640;7.494;2022-11-12T13:33:48;24.92;;;19.20;;
39956;SDS011;48483;44.640;7.494;2022-11-12T13:36:35;21.80;;;18.60;;
39956;SDS011;48483;44.640;7.494;2022-11-12T13:39:20;20.15;;;18.05;;
39956;SDS011;48483;44.640;7.494;2022-11-12T13:42:10;21.27;;;19.05;;
39956;SDS011;48483;44.640;7.494;2022-11-12T13:45:15;21.35;;;19.08;;
39956;SDS011;48483;44.640;7.494;2022-11-12T13:48:04;21.02;;;18.83;;
39956;SDS011;48483;44.640;7.494;2022-11-12T13:50:52;21.65;;;19.38;;
39956;SDS011;48483;44.640;7.494;2022-11-12T13:53:40;22.00;;;19.52;;
39956;SDS011;48483;44.640;7.494;2022-11-12T13:56:26;19.92;;;17.80;;
39956;SDS011;48483;44.640;7.494;2022-11-12T13:59:13;21.35;;;17.77;;
39956;SDS011;48483;44.640;7.494;2022-11-12T14:02:01;20.83;;;17.42;;
39956;SDS011;48483;44.640;7.494;2022-11-12T14:04:48;19.65;;;17.17;;
39956;SDS011;48483;44.640;7.494;2022-11-12T14:07:37;22.40;;;17.95;;
39956;SDS011;48483;44.640;7.494;2022-11-12T14:10:35;21.10;;;17.15;;
39956;SDS011;48483;44.640;7.494;2022-11-12T14:13:41;18.45;;;16.55;;
39956;SDS011;48483;44.640;7.494;2022-11-12T14:16:40;19.40;;;17.33;;
39956;SDS011;48483;44.640;7.494;2022-11-12T14:22:45;19.63;;;16.42;;
39956;SDS011;48483;44.640;7.494;2022-11-12T14:25:32;18.45;;;16.52;;
39956;SDS011;48483;44.640;7.494;2022-11-12T14:28:25;20.33;;;16.70;;
39956;SDS011;48483;44.640;7.494;2022-11-12T14:31:13;18.73;;;16.83;;
39956;SDS011;48483;44.640;7.494;2022-11-12T14:34:17;19.73;;;17.05;;
39956;SDS011;48483;44.640;7.494;2022-11-12T14:37:03;18.50;;;16.60;;
39956;SDS011;48483;44.640;7.494;2022-11-12T14:39:48;19.77;;;17.58;;
39956;SDS011;48483;44.640;7.494;2022-11-12T14:42:34;21.42;;;17.60;;
39956;SDS011;48483;44.640;7.494;2022-11-12T14:45:20;19.50;;;17.20;;
39956;SDS011;48483;44.640;7.494;2022-11-12T14:48:07;19.77;;;17.67;;
39956;SDS011;48483;44.640;7.494;2022-11-12T14:50:55;19.42;;;17.42;;
39956;SDS011;48483;44.640;7.494;2022-11-12T14:53:46;24.75;;;19.55;;
39956;SDS011;48483;44.640;7.494;2022-11-12T14:56:35;24.40;;;19.90;;
39956;SDS011;48483;44.640;7.494;2022-11-12T14:59:23;24.65;;;19.52;;
39956;SDS011;48483;44.640;7.494;2022-11-12T15:02:11;21.23;;;17.70;;
39956;SDS011;48483;44.640;7.494;2022-11-12T15:04:59;21.35;;;18.77;;
39956;SDS011;48483;44.640;7.494;2022-11-12T15:07:51;24.80;;;19.25;;
39956;SDS011;48483;44.640;7.494;2022-11-12T15:10:39;21.73;;;18.30;;
39956;SDS011;48483;44.640;7.494;2022-11-12T15:13:25;20.13;;;17.77;;
39956;SDS011;48483;44.640;7.494;2022-11-12T15:16:14;25.17;;;18.80;;
39956;SDS011;48483;44.640;7.494;2022-11-12T15:19:04;21.48;;;18.85;;
39956;SDS011;48483;44.640;7.494;2022-11-12T15:21:59;20.98;;;18.80;;
39956;SDS011;48483;44.640;7.494;2022-11-12T15:24:46;20.40;;;17.13;;
39956;SDS011;48483;44.640;7.494;2022-11-12T15:27:33;23.35;;;20.05;;
39956;SDS011;48483;44.640;7.494;2022-11-12T15:30:21;21.27;;;18.85;;
39956;SDS011;48483;44.640;7.494;2022-11-12T15:33:15;23.80;;;20.88;;
39956;SDS011;48483;44.640;7.494;2022-11-12T15:36:04;29.33;;;26.27;;
39956;SDS011;48483;44.640;7.494;2022-11-12T15:38:57;26.80;;;23.52;;
39956;SDS011;48483;44.640;7.494;2022-11-12T15:41:43;28.15;;;25.25;;
39956;SDS011;48483;44.640;7.494;2022-11-12T15:44:32;28.02;;;24.90;;
39956;SDS011;48483;44.640;7.494;2022-11-12T15:47:20;27.50;;;23.20;;
39956;SDS011;48483;44.640;7.494;2022-11-12T15:50:10;26.80;;;23.00;;
39956;SDS011;48483;44.640;7.494;2022-11-12T15:53:00;23.95;;;20.95;;
39956;SDS011;48483;44.640;7.494;2022-11-12T15:55:45;30.60;;;20.80;;
39956;SDS011;48483;44.640;7.494;2022-11-12T15:58:31;25.30;;;22.58;;
39956;SDS011;48483;44.640;7.494;2022-11-12T16:01:18;24.98;;;21.95;;
39956;SDS011;48483;44.640;7.494;2022-11-12T16:04:04;25.27;;;22.58;;
39956;SDS011;48483;44.640;7.494;2022-11-12T16:06:50;23.85;;;21.25;;
39956;SDS011;48483;44.640;7.494;2022-11-12T16:09:36;29.40;;;23.38;;
39956;SDS011;48483;44.640;7.494;2022-11-12T16:12:23;25.15;;;22.00;;
39956;SDS011;48483;44.640;7.494;2022-11-12T16:15:11;27.23;;;22.67;;
39956;SDS011;48483;44.640;7.494;2022-11-12T16:17:57;27.63;;;23.75;;
39956;SDS011;48483;44.640;7.494;2022-11-12T16:20:45;26.90;;;22.80;;
39956;SDS011;48483;44.640;7.494;2022-11-12T16:23:33;27.25;;;21.48;;
39956;SDS011;48483;44.640;7.494;2022-11-12T16:26:20;27.13;;;23.73;;
39956;SDS011;48483;44.640;7.494;2022-11-12T16:29:09;33.35;;;26.77;;
39956;SDS011;48483;44.640;7.494;2022-11-12T16:31:57;28.67;;;24.48;;
39956;SDS011;48483;44.640;7.494;2022-11-12T16:34:42;24.75;;;22.13;;
39956;SDS011;48483;44.640;7.494;2022-11-12T16:37:28;21.90;;;19.75;;
39956;SDS011;48483;44.640;7.494;2022-11-12T16:40:14;23.35;;;20.80;;
39956;SDS011;48483;44.640;7.494;2022-11-12T16:43:03;25.83;;;20.67;;
39956;SDS011;48483;44.640;7.494;2022-11-12T16:45:49;24.15;;;20.88;;
39956;SDS011;48483;44.640;7.494;2022-11-12T16:48:34;26.20;;;21.60;;
39956;SDS011;48483;44.640;7.494;2022-11-12T16:51:21;23.88;;;20.45;;